Time;durP1;ratioP1;P1;durP2;ratioP2;P2;SDS_P1;SDS_P2;PMS_P1;PMS_P2;Temp;Humidity;BMP_temperature;BMP_pressure;BME280_temperature;BME280_humidity;BME280_pressure;Samples;Min_cycle;Max_cycle;Signal;HPM_P1;HPM_P2
2023/10/17 00:01:12;;;;;;;3.65;1.10;;;;;;;22.93;44.42;96379.94;5093238;28;20027;-27
2023/10/17 00:03:38;;;;;;;5.82;1.30;;;;;;;22.75;44.41;96377.72;5093638;28;20020;-27
2023/10/17 00:06:06;;;;;;;4.40;1.00;;;;;;;22.80;44.48;96379.75;5093506;28;20020;-27
2023/10/17 00:08:33;;;;;;;3.25;1.17;;;;;;;22.86;44.85;96374.22;5093474;28;20022;-26
2023/10/17 00:11:07;;;;;;;4.28;0.80;;;;;;;22.58;45.37;96372.28;5093090;28;20024;-27
2023/10/17 00:13:44;;;;;;;2.65;0.80;;;;;;;22.76;45.67;96362.66;5093470;28;20028;-26
2023/10/17 00:16:14;;;;;;;5.53;1.00;;;;;;;22.84;44.95;96368.44;5093526;28;20028;-26
2023/10/17 00:18:40;;;;;;;4.07;0.95;;;;;;;22.70;44.85;96366.69;5098316;28;20373;-26
2023/10/17 00:21:25;;;;;;;1.58;0.85;;;;;;;22.60;44.67;96355.19;5095557;28;20110;-26
2023/10/17 00:23:51;;;;;;;2.80;1.10;;;;;;;22.55;44.30;96351.16;5093447;28;20020;-27
2023/10/17 00:26:18;;;;;;;3.15;0.80;;;;;;;22.62;44.00;96344.38;5093518;28;20027;-28
2023/10/17 00:28:46;;;;;;;3.65;0.88;;;;;;;22.52;44.04;96354.19;5093220;28;20107;-26
2023/10/17 00:31:12;;;;;;;2.65;1.00;;;;;;;22.67;43.69;96351.13;5092962;28;20039;-27
2023/10/17 00:33:41;;;;;;;3.45;0.90;;;;;;;22.64;43.33;96346.59;5100321;28;20522;-27
2023/10/17 00:36:14;;;;;;;4.10;1.00;;;;;;;22.36;44.15;96344.72;5093044;28;20524;-26
2023/10/17 00:38:43;;;;;;;;;;;;;;;22.59;43.42;96328.78;5093513;28;20020;-27
2023/10/17 00:41:23;;;;;;;5.18;1.00;;;;;;;22.61;44.17;96325.53;5094497;28;19908;-27
2023/10/17 00:43:49;;;;;;;2.80;0.80;;;;;;;22.70;44.24;96328.00;5104203;28;20460;-26
2023/10/17 00:46:16;;;;;;;2.13;1.00;;;;;;;22.56;44.20;96313.97;5096488;28;20019;-27
2023/10/17 00:48:42;;;;;;;3.50;1.00;;;;;;;22.54;44.38;96307.44;5097091;28;20514;-27
2023/10/17 00:51:08;;;;;;;3.22;0.80;;;;;;;22.68;43.84;96308.41;5096744;28;20024;-27
2023/10/17 00:53:39;;;;;;;5.53;0.98;;;;;;;22.38;44.03;96305.50;5096760;28;20494;-27
2023/10/17 00:56:06;;;;;;;3.53;0.70;;;;;;;22.44;44.07;96304.22;5102496;28;20437;-26
2023/10/17 00:58:33;;;;;;;3.88;0.75;;;;;;;22.41;43.73;96296.94;5096399;28;20027;-26
2023/10/17 01:01:20;;;;;;;3.10;0.80;;;;;;;22.37;43.60;96299.25;5094981;28;20028;-26
2023/10/17 01:03:48;;;;;;;4.10;0.98;;;;;;;22.41;43.64;96301.72;5095938;28;20409;-26
2023/10/17 01:09:07;;;;;;;5.25;1.33;;;;;;;22.47;43.93;96305.22;5097413;28;20031;-27
2023/10/17 01:11:38;;;;;;;2.35;0.90;;;;;;;22.51;43.87;96323.03;5096150;28;20031;-27
2023/10/17 01:14:04;;;;;;;3.20;0.60;;;;;;;22.66;43.75;96322.72;5096099;28;20043;-26
2023/10/17 01:16:34;;;;;;;4.05;1.00;;;;;;;22.53;43.61;96320.50;5096037;28;20016;-27
2023/10/17 01:19:04;;;;;;;4.28;1.20;;;;;;;22.55;44.01;96320.75;5096065;28;20016;-27
2023/10/17 01:21:30;;;;;;;2.60;0.90;;;;;;;22.62;44.28;96310.44;5102983;28;20020;-26
2023/10/17 01:23:56;;;;;;;2.67;0.90;;;;;;;22.52;43.92;96319.00;5100995;28;20106;-27
2023/10/17 01:26:23;;;;;;;3.08;0.95;;;;;;;22.55;43.92;96311.72;5097236;28;20081;-26
2023/10/17 01:28:51;;;;;;;3.97;0.98;;;;;;;22.42;43.93;96303.22;5096086;28;20024;-28
2023/10/17 01:31:22;;;;;;;4.07;1.73;;;;;;;22.42;43.88;96306.75;5095826;28;20458;-28
2023/10/17 01:33:51;;;;;;;1.95;0.90;;;;;;;22.55;43.34;96303.44;5095601;28;20038;-26
2023/10/17 01:36:17;;;;;;;4.38;1.00;;;;;;;22.53;42.97;96309.47;5095544;28;20024;-26
2023/10/17 01:38:43;;;;;;;1.55;0.85;;;;;;;22.35;43.00;96306.53;5102461;28;20973;-27
2023/10/17 01:41:12;;;;;;;3.78;1.00;;;;;;;22.39;42.62;96309.75;5095706;28;20099;-26
2023/10/17 01:43:41;;;;;;;2.78;0.90;;;;;;;22.37;42.68;96312.31;5095556;28;20018;-26
2023/10/17 01:46:15;;;;;;;4.32;1.25;;;;;;;22.46;42.41;96310.00;5095714;28;20012;-27
2023/10/17 01:48:47;;;;;;;2.25;0.98;;;;;;;22.41;42.28;96313.53;5095414;28;20035;-26
2023/10/17 01:51:13;;;;;;;2.70;0.60;;;;;;;22.52;42.16;96313.47;5095213;28;20012;-26
2023/10/17 01:53:41;;;;;;;1.38;0.80;;;;;;;22.36;42.62;96317.06;5094948;28;20024;-27
2023/10/17 01:56:13;;;;;;;2.67;1.02;;;;;;;22.27;42.74;96316.59;5095392;28;20050;-28
2023/10/17 01:58:49;;;;;;;5.07;1.20;;;;;;;22.46;41.97;96318.28;5095478;28;20063;-27
2023/10/17 02:01:17;;;;;;;3.70;0.82;;;;;;;22.43;41.76;96313.78;5095064;28;20024;-26
2023/10/17 02:03:46;;;;;;;2.53;0.73;;;;;;;22.46;41.81;96317.53;5094959;28;20032;-26
2023/10/17 02:06:20;;;;;;;2.97;0.90;;;;;;;22.46;41.60;96306.50;5102756;28;20094;-26
2023/10/17 02:08:46;;;;;;;3.53;1.00;;;;;;;22.34;42.13;96313.31;5095572;28;20016;-27
2023/10/17 02:11:24;;;;;;;1.92;0.82;;;;;;;22.42;41.88;96308.75;5095383;28;20035;-27
2023/10/17 02:13:56;;;;;;;2.10;1.00;;;;;;;22.50;41.54;96310.47;5095010;28;20428;-26
2023/10/17 02:16:28;;;;;;;2.70;0.90;;;;;;;22.26;41.93;96302.00;5102172;28;20027;-29
2023/10/17 02:18:58;;;;;;;2.45;0.80;;;;;;;22.43;41.63;96293.69;5094787;28;20027;-26
2023/10/17 02:21:26;;;;;;;1.63;0.75;;;;;;;22.36;42.07;96294.97;5095334;28;20073;-28
2023/10/17 02:23:51;;;;;;;3.80;0.70;;;;;;;22.42;42.03;96290.16;5094741;28;20031;-27
2023/10/17 02:26:21;;;;;;;2.88;1.00;;;;;;;22.26;41.97;96290.22;5101608;28;20019;-27
2023/10/17 02:29:11;;;;;;;3.20;1.00;;;;;;;22.26;42.20;96288.19;5099385;28;20019;-27
2023/10/17 02:31:38;;;;;;;1.73;0.70;;;;;;;22.18;42.31;96290.00;5094605;28;20086;-27
2023/10/17 02:34:04;;;;;;;2.78;0.88;;;;;;;22.26;42.07;96298.50;5094621;28;20455;-27
2023/10/17 02:36:29;;;;;;;2.45;0.80;;;;;;;22.31;42.09;96297.75;5093168;28;20020;-26
2023/10/17 02:38:55;;;;;;;4.32;0.93;;;;;;;22.36;42.21;96299.75;5094067;28;20467;-27
2023/10/17 02:41:22;;;;;;;3.05;0.85;;;;;;;22.44;41.51;96295.94;5094387;28;20016;-26
2023/10/17 02:43:54;;;;;;;2.20;0.80;;;;;;;22.50;41.65;96285.59;5101531;28;20027;-27
2023/10/17 02:46:27;;;;;;;3.00;0.87;;;;;;;22.46;41.66;96293.44;5102037;28;20012;-26
2023/10/17 02:48:56;;;;;;;1.58;0.90;;;;;;;22.35;42.53;96282.41;5101630;28;20024;-27
2023/10/17 02:53:52;;;;;;;3.50;1.30;;;;;;;22.17;42.48;96280.19;5094159;28;20020;-28
2023/10/17 02:56:20;;;;;;;4.00;0.93;;;;;;;22.42;42.09;96283.88;5094100;28;20491;-26
2023/10/17 02:58:59;;;;;;;3.35;0.85;;;;;;;22.41;41.95;96290.66;5094448;28;20024;-27
2023/10/17 03:01:27;;;;;;;2.38;0.95;;;;;;;22.40;41.69;96281.63;5094074;28;20035;-26
2023/10/17 03:03:52;;;;;;;2.28;0.77;;;;;;;22.29;42.07;96281.66;5093881;28;20034;-27
2023/10/17 03:06:18;;;;;;;2.55;1.17;;;;;;;22.40;42.00;96278.13;5093796;28;20107;-28
2023/10/17 03:09:14;;;;;;;3.97;0.90;;;;;;;22.25;41.73;96272.91;5094370;28;20051;-26
2023/10/17 03:11:47;;;;;;;2.78;0.80;;;;;;;22.32;42.08;96269.63;5093604;28;20028;-26
2023/10/17 03:14:19;;;;;;;3.03;0.80;;;;;;;22.30;41.71;96263.84;5094051;28;20042;-26
2023/10/17 03:16:52;;;;;;;2.17;0.90;;;;;;;22.41;41.42;96265.81;5093813;28;20028;-26
2023/10/17 03:19:26;;;;;;;1.67;0.90;;;;;;;22.58;41.03;96256.19;5094284;28;20027;-27
2023/10/17 03:22:16;;;;;;;3.00;0.80;;;;;;;22.18;41.78;96256.84;5093575;28;20093;-27
2023/10/17 03:24:42;;;;;;;3.03;1.13;;;;;;;22.28;41.57;96263.59;5093627;28;20547;-26
2023/10/17 03:27:11;;;;;;;3.88;0.90;;;;;;;22.23;41.20;96252.56;5093643;28;20031;-27
2023/10/17 03:29:41;;;;;;;1.98;0.80;;;;;;;22.32;40.46;96261.31;5101110;28;20025;-26
2023/10/17 03:32:11;;;;;;;2.17;1.00;;;;;;;22.15;41.28;96255.09;5101036;28;20047;-27
2023/10/17 03:34:37;;;;;;;3.15;1.00;;;;;;;22.06;41.35;96258.16;5100624;28;20026;-26
2023/10/17 03:39:52;;;;;;;3.83;1.00;;;;;;;22.17;40.74;96260.88;5093976;28;20054;-26
2023/10/17 03:45:23;;;;;;;5.40;1.10;;;;;;;22.22;40.61;96273.91;5093527;28;20050;-27
2023/10/17 03:47:53;;;;;;;3.53;1.00;;;;;;;22.23;40.64;96278.19;5094347;28;20066;-26
2023/10/17 03:50:41;;;;;;;3.75;0.80;;;;;;;22.03;40.81;96284.00;5098222;28;20031;-27
2023/10/17 03:53:15;;;;;;;2.95;1.08;;;;;;;22.09;40.15;96277.22;5093234;28;20551;-27
2023/10/17 03:55:50;;;;;;;3.55;1.20;;;;;;;22.02;40.27;96283.25;5093407;28;20039;-27
2023/10/17 04:00:48;;;;;;;2.17;0.70;;;;;;;22.16;39.75;96275.94;5093705;28;20040;-26
2023/10/17 04:03:25;;;;;;;2.90;0.82;;;;;;;21.82;40.58;96280.75;5097261;28;20110;-26
2023/10/17 04:06:02;;;;;;;4.68;0.88;;;;;;;21.96;40.00;96274.22;5095720;28;20021;-27
2023/10/17 04:11:17;;;;;;;3.65;0.70;;;;;;;21.96;40.17;96284.50;5093506;28;20115;-28
2023/10/17 04:13:45;;;;;;;3.63;0.90;;;;;;;21.96;40.18;96278.97;5093500;28;20051;-26
2023/10/17 04:16:14;;;;;;;3.63;0.73;;;;;;;22.02;40.25;96282.50;5094735;28;20028;-26
2023/10/17 04:18:40;;;;;;;2.47;1.27;;;;;;;22.08;40.07;96275.72;5096949;28;20429;-26
2023/10/17 04:21:26;;;;;;;1.80;0.70;;;;;;;21.94;39.87;96279.50;5097439;28;20031;-26
2023/10/17 04:23:52;;;;;;;2.10;0.70;;;;;;;21.91;40.50;96286.00;5095843;28;20471;-26
2023/10/17 04:26:18;;;;;;;2.72;0.90;;;;;;;21.83;40.72;96290.56;5097053;28;20085;-27
2023/10/17 04:28:49;;;;;;;6.30;1.02;;;;;;;21.91;40.36;96288.00;5096849;28;20024;-26
2023/10/17 04:31:25;;;;;;;2.55;1.00;;;;;;;21.96;40.80;96293.53;5096778;28;20053;-27
2023/10/17 04:34:18;;;;;;;4.35;1.20;;;;;;;21.85;40.88;96277.00;5097318;28;20024;-27
2023/10/17 04:36:41;;;;;;;3.58;0.98;;;;;;;21.70;41.11;96282.78;5104070;28;20063;-27
2023/10/17 04:42:04;;;;;;;2.00;0.85;;;;;;;21.92;40.73;96279.22;5097363;28;20017;-27
2023/10/17 04:44:36;;;;;;;1.45;0.60;;;;;;;21.90;40.60;96278.22;5096958;28;20016;-26
2023/10/17 04:49:32;;;;;;;2.83;0.80;;;;;;;21.73;40.86;96276.28;5096745;28;20020;-26
2023/10/17 04:57:02;;;;;;;1.50;0.77;;;;;;;21.82;40.78;96287.03;5103908;28;20048;-26
2023/10/17 04:59:41;;;;;;;1.52;0.80;;;;;;;21.86;40.30;96286.78;5096245;28;20024;-27
2023/10/17 05:07:58;;;;;;;1.95;0.75;;;;;;;21.80;40.87;96280.50;5096604;28;20465;-26
2023/10/17 06:18:52;;;;;;;3.83;1.20;;;;;;;21.83;40.83;96365.09;5094836;28;20039;-26
2023/10/17 06:21:18;;;;;;;1.65;0.60;;;;;;;21.76;40.43;96374.59;5094830;28;20020;-26
2023/10/17 06:26:53;;;;;;;2.75;0.88;;;;;;;21.68;40.73;96379.13;5098533;28;20115;-27
2023/10/17 06:34:16;;;;;;;2.80;1.00;;;;;;;21.59;40.94;96393.19;5094508;28;20035;-26
2023/10/17 06:36:43;;;;;;;3.13;0.75;;;;;;;21.83;40.57;96398.97;5094170;28;20059;-28
2023/10/17 06:39:19;;;;;;;4.20;1.02;;;;;;;21.77;40.98;96400.22;5094141;28;20098;-28
2023/10/17 06:41:49;;;;;;;1.35;0.80;;;;;;;21.82;40.94;96402.97;5094890;28;20016;-28
2023/10/17 06:44:23;;;;;;;1.73;0.70;;;;;;;21.99;40.73;96407.78;5094698;28;20024;-26
2023/10/17 06:54:50;;;;;;;1.63;0.88;;;;;;;21.97;41.24;96418.56;5094235;28;20107;-26
2023/10/17 06:57:33;;;;;;;3.17;0.80;;;;;;;21.92;41.10;96399.97;5094143;28;20072;-27
2023/10/17 07:00:15;;;;;;;6.47;0.98;;;;;;;21.96;40.83;96404.00;5094709;28;20112;-26
2023/10/17 07:02:43;;;;;;;1.23;0.70;;;;;;;21.90;41.14;96408.00;5094277;28;20052;-26
2023/10/17 07:05:08;;;;;;;2.95;0.95;;;;;;;22.05;40.87;96414.06;5101399;28;20047;-26
2023/10/17 07:07:45;;;;;;;2.60;0.90;;;;;;;22.04;40.99;96404.25;5093904;28;20044;-26
2023/10/17 07:10:17;;;;;;;3.85;0.88;;;;;;;22.04;40.91;96409.78;5093991;28;20024;-26
2023/10/17 07:12:50;;;;;;;1.77;0.63;;;;;;;22.09;40.64;96409.03;5093844;28;20471;-27
2023/10/17 07:15:19;;;;;;;2.25;0.80;;;;;;;22.21;40.54;96416.06;5095992;28;20285;-27
2023/10/17 07:18:39;;;;;;;4.70;1.00;;;;;;;22.17;40.74;96418.31;5098437;28;20047;-27
2023/10/17 07:23:45;;;;;;;;;;;;;;;22.08;41.35;96422.09;5064205;28;20502;-26
2023/10/17 07:26:17;;;;;;;1.88;0.80;;;;;;;22.03;41.64;96427.59;5069032;28;20013;-27
2023/10/17 07:28:44;;;;;;;1.40;0.70;;;;;;;22.30;40.95;96429.59;5070034;28;20036;-27
2023/10/17 07:31:13;;;;;;;2.40;0.80;;;;;;;22.16;40.78;96430.63;5068951;28;20283;-27
2023/10/17 07:33:44;;;;;;;4.70;0.98;;;;;;;22.26;40.77;96434.63;5061880;28;20032;-27
2023/10/17 07:36:15;;;;;;;2.47;0.80;;;;;;;22.27;40.70;96425.06;5062243;28;20029;-27
2023/10/17 07:38:46;;;;;;;4.07;1.17;;;;;;;22.25;41.10;96430.38;5068655;28;20033;-27
2023/10/17 07:41:13;;;;;;;1.02;0.60;;;;;;;22.20;41.27;96436.66;5069235;28;20089;-28
2023/10/17 07:43:44;;;;;;;2.05;0.90;;;;;;;22.12;41.42;96438.41;5069005;28;20031;-27
2023/10/17 07:46:26;;;;;;;3.03;0.93;;;;;;;22.32;41.34;96438.13;5069755;28;20150;-27
2023/10/17 07:48:51;;;;;;;2.03;0.80;;;;;;;22.39;41.16;96445.91;5061744;28;20040;-27
2023/10/17 07:51:18;;;;;;;1.38;1.00;;;;;;;22.34;41.17;96452.22;5058561;28;20049;-27
2023/10/17 07:53:47;;;;;;;2.30;0.85;;;;;;;22.35;40.63;96447.44;5078391;28;20118;-27
2023/10/17 07:56:24;;;;;;;1.95;0.80;;;;;;;22.34;41.02;96443.91;5097444;28;20026;-27
2023/10/17 07:58:57;;;;;;;5.07;0.90;;;;;;;22.29;41.02;96439.16;5097825;28;20020;-26
2023/10/17 08:01:32;;;;;;;1.80;0.70;;;;;;;22.42;41.15;96441.38;5097765;28;20035;-26
2023/10/17 08:04:17;;;;;;;2.42;0.90;;;;;;;22.55;40.85;96436.09;5096432;28;20494;-26
2023/10/17 08:06:44;;;;;;;2.72;0.77;;;;;;;22.32;40.81;96434.63;5097524;28;20111;-27
2023/10/17 08:11:52;;;;;;;2.63;1.00;;;;;;;22.21;41.21;96438.91;5097463;28;20102;-27
2023/10/17 08:14:41;;;;;;;3.03;0.80;;;;;;;22.43;40.94;96443.66;5104644;28;20094;-26
2023/10/17 08:17:09;;;;;;;1.40;0.80;;;;;;;22.51;40.91;96436.34;5097567;28;20379;-27
2023/10/17 08:22:19;;;;;;;2.80;0.82;;;;;;;22.38;40.94;96436.09;5096985;28;20027;-27
2023/10/17 08:24:51;;;;;;;1.73;0.80;;;;;;;22.36;41.26;96435.88;5096879;28;20111;-27
2023/10/17 08:29:49;;;;;;;3.33;1.00;;;;;;;22.46;40.73;96436.38;5097161;28;21645;-26
2023/10/17 08:35:02;;;;;;;1.93;0.90;;;;;;;22.49;40.96;96438.88;5097224;28;20057;-26
2023/10/17 08:37:39;;;;;;;4.72;0.90;;;;;;;22.38;40.85;96429.84;5104247;28;20291;-26
2023/10/17 08:40:29;;;;;;;3.22;0.80;;;;;;;22.36;41.17;96435.88;5096529;28;20031;-27
2023/10/17 08:42:52;;;;;;;3.78;0.90;;;;;;;22.44;40.82;96431.34;5096430;28;20024;-26
2023/10/17 08:45:19;;;;;;;5.10;0.93;;;;;;;22.76;40.16;96431.03;5096267;28;20023;-27
2023/10/17 08:47:46;;;;;;;1.38;0.68;;;;;;;22.43;40.94;96427.06;5096645;28;20027;-27
2023/10/17 08:50:15;;;;;;;1.98;1.08;;;;;;;22.57;40.79;96428.81;5101451;28;20046;-27
2023/10/17 08:52:43;;;;;;;2.83;0.80;;;;;;;22.71;40.32;96440.09;5098338;28;20043;-26
2023/10/17 08:55:15;;;;;;;12.30;1.50;;;;;;;22.50;40.67;96437.59;5096429;28;20031;-26
2023/10/17 08:57:41;;;;;;;5.65;1.02;;;;;;;22.47;40.50;96438.63;5096687;28;20016;-27
2023/10/17 09:02:40;;;;;;;3.58;0.98;;;;;;;22.59;40.55;96431.06;5096029;28;20051;-28
2023/10/17 09:05:17;;;;;;;12.30;1.10;;;;;;;22.66;40.93;96441.59;5096414;28;20478;-27
2023/10/17 09:07:45;;;;;;;3.03;1.02;;;;;;;22.69;40.59;96437.06;5096467;28;20078;-27
2023/10/17 09:10:41;;;;;;;2.53;1.00;;;;;;;22.47;40.99;96438.63;5096478;28;20023;-27
2023/10/17 09:15:49;;;;;;;3.15;1.00;;;;;;;22.87;40.76;96447.63;5096522;28;20051;-28
2023/10/17 09:18:23;;;;;;;5.82;2.28;;;;;;;22.92;40.32;96435.75;5096025;28;20509;-28
2023/10/17 09:20:50;;;;;;;5.07;1.80;;;;;;;23.04;40.43;96445.53;5095784;28;20024;-27
2023/10/17 09:23:27;;;;;;;5.78;1.60;;;;;;;22.76;40.84;96433.78;5096171;28;20062;-27
2023/10/17 09:26:19;;;;;;;4.28;1.75;;;;;;;22.68;41.20;96435.56;5096189;28;20379;-27
2023/10/17 09:28:47;;;;;;;5.33;1.43;;;;;;;22.74;40.84;96441.84;5095997;28;20399;-26
2023/10/17 09:31:15;;;;;;;5.00;1.40;;;;;;;22.94;40.91;96438.78;5095598;28;20268;-27
2023/10/17 09:33:44;;;;;;;6.40;1.65;;;;;;;22.88;41.18;96433.25;5095797;28;20133;-27
2023/10/17 09:36:17;;;;;;;8.07;2.05;;;;;;;22.98;41.09;96439.28;5095800;28;20020;-27
2023/10/17 09:38:46;;;;;;;2.47;1.10;;;;;;;23.02;41.24;96441.75;5105526;28;20081;-27
2023/10/17 09:41:17;;;;;;;3.53;1.00;;;;;;;23.02;40.82;96436.97;5100022;28;20020;-27
2023/10/17 09:43:43;;;;;;;2.95;1.00;;;;;;;22.95;41.15;96437.53;5102930;28;20028;-27
2023/10/17 09:46:10;;;;;;;2.25;1.17;;;;;;;22.89;41.03;96442.31;5095375;28;20099;-28
2023/10/17 09:48:38;;;;;;;4.78;1.00;;;;;;;23.04;41.06;96440.00;5095702;28;20074;-27
2023/10/17 09:51:05;;;;;;;2.65;1.10;;;;;;;23.03;41.68;96435.72;5095684;28;20396;-27
2023/10/17 09:53:32;;;;;;;2.70;0.90;;;;;;;23.11;41.38;96439.47;5095480;28;20413;-27
2023/10/17 09:56:03;;;;;;;3.33;0.90;;;;;;;23.21;41.20;96437.16;5103290;28;20042;-27
2023/10/17 09:58:53;;;;;;;2.55;0.70;;;;;;;23.02;40.83;96431.44;5095402;28;20024;-27
2023/10/17 10:01:22;;;;;;;3.15;1.05;;;;;;;23.20;40.89;96430.13;5091060;28;20055;-27
2023/10/17 10:03:51;;;;;;;2.70;1.00;;;;;;;23.32;41.23;96430.81;5094025;28;20032;-28
2023/10/17 10:06:27;;;;;;;4.28;1.20;;;;;;;23.27;41.19;96432.34;5094784;28;20023;-28
2023/10/17 10:09:01;;;;;;;3.25;1.10;;;;;;;23.37;40.60;96430.78;5094959;28;20024;-27
2023/10/17 10:11:48;;;;;;;2.38;0.80;;;;;;;23.39;40.95;96438.56;5101646;28;20044;-27
2023/10/17 10:14:15;;;;;;;2.42;1.17;;;;;;;23.58;39.93;96442.28;5094759;28;20493;-26
2023/10/17 10:17:11;;;;;;;3.55;1.00;;;;;;;23.36;40.80;96432.06;5094870;28;20023;-27
2023/10/17 10:19:43;;;;;;;2.55;1.00;;;;;;;23.29;40.81;96438.13;5092066;28;20438;-27
2023/10/17 10:22:14;;;;;;;4.03;1.27;;;;;;;23.46;40.59;96435.28;5094977;28;20020;-27
2023/10/17 10:24:41;;;;;;;1.88;0.85;;;;;;;23.34;41.52;96429.06;5094671;28;20073;-26
2023/10/17 10:27:10;;;;;;;6.20;1.58;;;;;;;23.55;41.05;96432.22;5094325;28;20078;-27
2023/10/17 10:29:36;;;;;;;3.03;1.05;;;;;;;23.57;40.97;96424.91;5102094;28;20463;-27
2023/10/17 10:32:08;;;;;;;2.80;1.00;;;;;;;23.45;40.98;96419.94;5102569;28;20038;-27
2023/10/17 10:34:37;;;;;;;1.77;1.02;;;;;;;23.57;40.99;96422.16;5094538;28;20167;-27
2023/10/17 10:37:08;;;;;;;3.35;1.05;;;;;;;23.50;40.97;96419.13;5094592;28;20024;-28
2023/10/17 10:39:35;;;;;;;4.80;1.20;;;;;;;23.52;40.73;96420.16;5094270;28;20028;-27
2023/10/17 10:42:05;;;;;;;3.30;1.10;;;;;;;23.64;40.80;96409.75;5094494;28;20039;-27
2023/10/17 10:44:40;;;;;;;1.55;0.75;;;;;;;23.69;40.92;96406.22;5101705;28;20091;-27
2023/10/17 10:47:06;;;;;;;2.28;1.10;;;;;;;23.67;40.93;96397.66;5095152;28;20036;-27
2023/10/17 10:49:31;;;;;;;3.00;0.95;;;;;;;23.69;39.99;96397.16;5094354;28;20016;-26
2023/10/17 10:51:58;;;;;;;6.78;1.75;;;;;;;23.74;40.13;96388.06;5094315;28;20369;-28
2023/10/17 10:54:59;;;;;;;2.33;0.90;;;;;;;23.58;41.37;96387.66;5094293;28;20016;-28
2023/10/17 10:57:28;;;;;;;3.33;1.05;;;;;;;23.72;40.66;96371.97;5096368;28;20032;-27
2023/10/17 10:59:54;;;;;;;5.25;1.33;;;;;;;23.77;40.30;96371.16;5095295;28;20471;-26
2023/10/17 11:02:20;;;;;;;4.40;1.13;;;;;;;23.80;40.04;96363.84;5099981;28;20030;-26
2023/10/17 11:04:47;;;;;;;3.38;1.00;;;;;;;23.66;39.88;96374.00;5094314;28;20024;-28
2023/10/17 11:07:23;;;;;;;3.38;1.38;;;;;;;23.88;40.46;96371.06;5093760;28;20031;-27
2023/10/17 11:10:06;;;;;;;4.05;1.27;;;;;;;23.70;39.73;96366.19;5093754;28;20020;-26
2023/10/17 11:12:32;;;;;;;3.10;1.38;;;;;;;23.69;40.04;96363.94;5093704;28;20020;-27
2023/10/17 11:15:15;;;;;;;5.22;1.35;;;;;;;23.59;40.08;96366.28;5101250;28;20031;-27
2023/10/17 11:17:43;;;;;;;3.10;0.90;;;;;;;23.78;40.14;96360.81;5094143;28;20490;-27
2023/10/17 11:20:28;;;;;;;1.70;0.90;;;;;;;23.88;39.90;96359.97;5093214;28;20040;-27
2023/10/17 11:22:54;;;;;;;4.30;1.17;;;;;;;23.86;39.76;96353.47;5093638;28;20083;-28
2023/10/17 11:25:27;;;;;;;3.45;1.50;;;;;;;23.84;39.77;96356.00;5092841;28;20424;-27
2023/10/17 11:27:55;;;;;;;3.65;0.82;;;;;;;23.68;39.95;96352.09;5093633;28;20028;-27
2023/10/17 11:30:34;;;;;;;2.78;1.10;;;;;;;23.63;40.22;96350.13;5093918;28;20421;-28
2023/10/17 11:33:04;;;;;;;2.42;1.00;;;;;;;23.80;40.75;96347.22;5094337;28;20115;-27
2023/10/17 11:35:34;;;;;;;2.40;1.10;;;;;;;23.82;40.09;96350.97;5093887;28;20024;-28
2023/10/17 11:38:00;;;;;;;3.33;1.15;;;;;;;23.77;40.35;96349.00;5093531;28;20111;-27
2023/10/17 11:40:30;;;;;;;2.78;0.90;;;;;;;23.76;40.12;96341.94;5093756;28;20024;-27
2023/10/17 11:42:59;;;;;;;4.97;1.02;;;;;;;23.90;40.51;96342.84;5093867;28;20020;-29
2023/10/17 11:45:33;;;;;;;5.53;1.13;;;;;;;23.66;40.14;96338.00;5093415;28;20023;-27
2023/10/17 11:48:14;;;;;;;3.20;0.90;;;;;;;23.55;40.02;96344.41;5093916;28;20021;-27
2023/10/17 11:50:40;;;;;;;2.45;0.95;;;;;;;23.70;39.40;96341.25;5094603;28;20441;-27
2023/10/17 11:53:12;;;;;;;4.90;1.20;;;;;;;23.83;39.23;96338.63;5100485;28;20068;-27
2023/10/17 11:55:43;;;;;;;3.15;1.75;;;;;;;23.80;40.20;96342.44;5093758;28;20019;-26
2023/10/17 11:58:09;;;;;;;2.33;1.15;;;;;;;23.68;40.73;96341.03;5093438;28;20034;-26
2023/10/17 12:00:35;;;;;;;3.92;1.10;;;;;;;23.84;40.19;96342.91;5093273;28;20103;-27
2023/10/17 12:03:00;;;;;;;3.72;1.20;;;;;;;23.67;39.83;96339.53;5093623;28;20030;-27
2023/10/17 12:05:27;;;;;;;5.13;1.58;;;;;;;23.65;39.61;96339.28;5093593;28;20474;-28
2023/10/17 12:07:59;;;;;;;1.73;1.00;;;;;;;23.66;40.13;96337.25;5093432;28;20422;-28
2023/10/17 12:10:26;;;;;;;1.87;0.87;;;;;;;23.66;40.37;96332.47;5099570;28;20542;-27
2023/10/17 12:13:04;;;;;;;3.30;1.35;;;;;;;23.79;40.45;96332.63;5092857;28;20020;-28
2023/10/17 12:15:29;;;;;;;1.83;1.00;;;;;;;23.69;40.81;96325.16;5093194;28;20031;-26
2023/10/17 12:17:56;;;;;;;4.45;1.50;;;;;;;23.71;41.11;96328.94;5092921;28;20380;-27
2023/10/17 12:20:28;;;;;;;5.68;1.10;;;;;;;23.92;40.25;96321.69;5093600;28;20024;-27
2023/10/17 12:22:55;;;;;;;5.22;1.35;;;;;;;23.75;41.50;96323.09;5092302;28;20031;-29
2023/10/17 12:25:23;;;;;;;11.02;1.52;;;;;;;23.80;41.59;96325.06;5093615;28;20021;-27
2023/10/17 12:27:52;;;;;;;8.10;0.93;;;;;;;23.68;41.30;96320.88;5093233;28;20036;-27
2023/10/17 12:30:28;;;;;;;2.75;0.93;;;;;;;23.70;40.75;96316.34;5093032;28;20028;-27
2023/10/17 12:32:57;;;;;;;6.18;1.40;;;;;;;23.77;40.92;96318.53;5093680;28;20488;-27
2023/10/17 12:35:22;;;;;;;3.55;1.48;;;;;;;23.78;40.31;96322.81;5093285;28;20383;-27
2023/10/17 12:37:57;;;;;;;2.42;0.77;;;;;;;23.76;40.53;96319.06;5095770;28;20016;-27
2023/10/17 12:40:22;;;;;;;3.85;1.10;;;;;;;23.81;40.65;96312.72;5096680;28;20024;-28
2023/10/17 12:42:48;;;;;;;2.53;1.30;;;;;;;23.88;40.91;96312.91;5096580;28;20027;-27
2023/10/17 12:45:20;;;;;;;1.98;1.10;;;;;;;23.82;40.71;96312.22;5096428;28;20012;-27
2023/10/17 12:47:46;;;;;;;1.93;0.97;;;;;;;23.79;40.50;96306.94;5096464;28;20037;-27
2023/10/17 12:50:15;;;;;;;3.80;0.90;;;;;;;23.70;40.36;96301.75;5096701;28;20024;-27
2023/10/17 12:52:41;;;;;;;2.80;0.80;;;;;;;23.82;39.13;96306.66;5096823;28;20044;-27
2023/10/17 12:55:11;;;;;;;2.83;0.93;;;;;;;23.75;40.08;96309.25;5096573;28;20368;-26
2023/10/17 12:57:38;;;;;;;1.90;1.00;;;;;;;23.73;40.02;96304.25;5096418;28;20452;-26
2023/10/17 13:00:12;;;;;;;2.33;0.90;;;;;;;23.83;40.32;96297.09;5103908;28;20410;-29
2023/10/17 13:02:40;;;;;;;2.83;0.82;;;;;;;24.05;39.68;96306.44;5096392;28;20018;-27
2023/10/17 13:05:09;;;;;;;3.60;1.00;;;;;;;24.09;38.52;96298.63;5096318;28;20113;-27
2023/10/17 13:07:38;;;;;;;2.75;0.82;;;;;;;24.00;39.59;96292.13;5096520;28;20059;-26
2023/10/17 13:10:05;;;;;;;4.20;0.77;;;;;;;23.97;39.93;96300.75;5096417;28;20364;-27
2023/10/17 13:12:32;;;;;;;3.28;1.20;;;;;;;24.00;39.55;96299.69;5095974;28;20058;-29
2023/10/17 13:14:57;;;;;;;1.95;0.90;;;;;;;23.82;40.02;96298.38;5095984;28;20020;-28
2023/10/17 13:17:24;;;;;;;2.42;0.57;;;;;;;23.87;38.77;96291.25;5095877;28;20039;-27
2023/10/17 13:19:51;;;;;;;5.78;1.20;;;;;;;23.90;40.06;96290.97;5095960;28;20457;-26
2023/10/17 13:22:20;;;;;;;1.23;0.68;;;;;;;24.07;38.52;96292.84;5095712;28;20131;-27
2023/10/17 13:24:48;;;;;;;3.40;0.90;;;;;;;23.84;38.77;96293.06;5102815;28;20023;-27
2023/10/17 13:27:15;;;;;;;3.75;0.73;;;;;;;23.78;38.66;96295.13;5103935;28;20068;-28
2023/10/17 13:29:41;;;;;;;3.97;1.15;;;;;;;23.89;38.88;96299.78;5095577;28;20550;-28
2023/10/17 13:32:07;;;;;;;2.67;0.82;;;;;;;23.89;38.62;96295.00;5096356;28;20055;-27
2023/10/17 13:34:36;;;;;;;2.60;0.90;;;;;;;23.77;38.66;96293.63;5095817;28;20024;-27
2023/10/17 13:37:07;;;;;;;2.33;0.82;;;;;;;23.89;39.25;96297.78;5095725;28;20070;-27
2023/10/17 13:39:33;;;;;;;3.40;0.75;;;;;;;23.77;39.49;96277.00;5096194;28;20019;-28
2023/10/17 13:41:58;;;;;;;2.13;0.70;;;;;;;23.89;38.88;96283.19;5095839;28;20012;-27
2023/10/17 13:44:24;;;;;;;1.40;0.80;;;;;;;24.04;39.04;96288.31;5095903;28;20070;-27
2023/10/17 13:46:51;;;;;;;2.88;1.10;;;;;;;23.96;39.13;96283.38;5095632;28;20012;-26
2023/10/17 13:49:17;;;;;;;1.85;0.88;;;;;;;24.07;38.58;96287.28;5094577;28;20081;-27
2023/10/17 13:51:46;;;;;;;1.65;0.75;;;;;;;24.04;38.87;96280.78;5095058;28;20047;-27
2023/10/17 13:54:13;;;;;;;2.47;0.73;;;;;;;24.00;39.17;96283.81;5095463;28;20019;-27
2023/10/17 13:56:40;;;;;;;2.33;1.20;;;;;;;24.02;38.78;96279.78;5095715;28;20024;-27
2023/10/17 13:59:13;;;;;;;3.72;0.95;;;;;;;23.96;39.44;96283.38;5095610;28;20048;-26
2023/10/17 14:01:41;;;;;;;2.38;0.80;;;;;;;23.74;39.29;96272.50;5095400;28;20024;-27
2023/10/17 14:04:10;;;;;;;2.33;1.08;;;;;;;23.77;39.65;96282.53;5095332;28;20073;-27
2023/10/17 14:06:40;;;;;;;5.40;0.90;;;;;;;23.86;39.11;96278.69;5094937;28;20026;-28